createdAt,value
2019-06-26T00:01:53.261Z,1
2019-06-26T00:06:55.592Z,1
2019-06-26T00:17:00.521Z,1
2019-06-26T00:22:03.011Z,1
2019-06-26T00:27:05.427Z,1
2019-06-26T00:32:07.911Z,1
2019-06-26T00:37:10.390Z,1
2019-06-26T00:42:12.858Z,1
2019-06-26T00:47:15.254Z,1
2019-06-26T00:52:17.745Z,1
2019-06-26T00:57:20.204Z,1
2019-06-26T01:02:22.643Z,1
2019-06-26T01:07:25.104Z,1
2019-06-26T01:12:27.581Z,1
2019-06-26T01:17:30.065Z,1
2019-06-26T01:22:32.528Z,1
2019-06-26T01:27:34.957Z,1
2019-06-26T01:32:37.432Z,1
2019-06-26T01:37:39.850Z,1
2019-06-26T01:42:42.301Z,1
2019-06-26T01:47:44.763Z,1
2019-06-26T01:52:47.220Z,1
2019-06-26T01:57:49.691Z,1
2019-06-26T02:02:52.454Z,1
2019-06-26T02:07:54.612Z,1
2019-06-26T02:12:57.067Z,1
2019-06-26T02:17:59.792Z,1
2019-06-26T02:23:02.021Z,1
2019-06-26T02:28:04.437Z,1
2019-06-26T02:33:06.880Z,1
2019-06-26T02:38:09.348Z,1
2019-06-26T02:43:11.805Z,1
2019-06-26T02:48:14.410Z,1
2019-06-26T02:53:16.730Z,1
2019-06-26T02:58:19.171Z,1
2019-06-26T03:03:21.658Z,13.6
2019-06-26T03:08:24.111Z,40.8
2019-06-26T03:13:26.598Z,82.6
2019-06-26T03:18:29.127Z,91.3
2019-06-26T03:23:31.474Z,99.9
2019-06-26T03:28:35.974Z,99.9
2019-06-26T03:33:36.430Z,99.9
2019-06-26T03:38:38.917Z,99.9
2019-06-26T03:43:41.472Z,99.9
2019-06-26T03:48:43.900Z,99.9
2019-06-26T03:53:46.219Z,99.9
2019-06-26T03:58:48.772Z,99.9
2019-06-26T04:03:51.199Z,99.9
2019-06-26T04:08:53.603Z,99.9
2019-06-26T04:13:56.073Z,99.9
2019-06-26T04:18:58.602Z,99.9
2019-06-26T04:24:00.999Z,99.9
2019-06-26T04:29:03.464Z,99.9
2019-06-26T04:34:05.912Z,99.9
2019-06-26T04:39:08.372Z,99.9
2019-06-26T04:44:10.859Z,99.9
2019-06-26T04:49:13.292Z,99.9
2019-06-26T04:54:15.766Z,99.9
2019-06-26T04:59:18.208Z,99.9
2019-06-26T05:04:20.670Z,99.9
2019-06-26T05:09:23.106Z,99.9
2019-06-26T05:14:25.611Z,99.9
2019-06-26T05:19:28.044Z,99.9
2019-06-26T05:24:30.496Z,99.9
2019-06-26T05:29:32.955Z,99.9
2019-06-26T05:34:35.521Z,99.9
2019-06-26T05:39:37.876Z,99.9
2019-06-26T05:44:40.354Z,99.9
2019-06-26T05:49:42.864Z,59.5
2019-06-26T05:54:45.254Z,17.9
2019-06-26T05:59:47.735Z,1
2019-06-26T06:04:50.287Z,1
2019-06-26T06:09:52.767Z,1
2019-06-26T06:14:55.074Z,1
2019-06-26T06:19:57.554Z,1
2019-06-26T06:25:00.010Z,1
2019-06-26T06:30:02.699Z,1
2019-06-26T06:35:05.003Z,1
2019-06-26T06:40:07.381Z,1
2019-06-26T06:45:09.863Z,1
2019-06-26T06:50:12.312Z,1
2019-06-26T06:55:14.803Z,1
2019-06-26T07:00:17.297Z,1
2019-06-26T07:05:19.873Z,1
2019-06-26T07:15:24.735Z,1
2019-06-26T07:20:27.105Z,1
2019-06-26T07:25:30.008Z,1
2019-06-26T07:30:32.040Z,1
2019-06-26T07:35:34.490Z,1
2019-06-26T07:40:37.159Z,1
2019-06-26T07:45:39.497Z,1
2019-06-26T07:50:41.899Z,1
2019-06-26T07:55:44.423Z,1
2019-06-26T08:00:46.834Z,1
2019-06-26T08:05:49.292Z,1
2019-06-26T08:10:51.705Z,1
2019-06-26T08:15:54.210Z,1
2019-06-26T08:21:11.284Z,1
2019-06-26T08:25:59.358Z,1
2019-06-26T08:31:01.629Z,1
2019-06-26T08:36:04.095Z,1
2019-06-26T08:41:06.520Z,1
2019-06-26T08:51:11.439Z,1
2019-06-26T08:56:13.886Z,1
2019-06-26T09:01:16.358Z,1
2019-06-26T09:06:18.853Z,1
2019-06-26T09:16:23.784Z,1
2019-06-26T09:21:26.349Z,1
2019-06-26T09:26:28.799Z,1
2019-06-26T09:31:31.099Z,1
2019-06-26T09:36:33.585Z,1
2019-06-26T09:41:36.117Z,1
2019-06-26T09:51:40.949Z,1
2019-06-26T09:56:43.412Z,1
2019-06-26T10:01:45.889Z,1
2019-06-26T10:06:48.345Z,1
2019-06-26T10:11:50.810Z,1
2019-06-26T10:16:53.303Z,1
2019-06-26T10:21:55.863Z,1
2019-06-26T10:26:58.302Z,1
2019-06-26T10:32:00.673Z,1
2019-06-26T10:37:03.118Z,1
2019-06-26T10:42:05.646Z,1
2019-06-26T10:47:08.120Z,1
2019-06-26T10:52:10.540Z,1
2019-06-26T10:57:12.964Z,1
2019-06-26T11:02:16.906Z,1
2019-06-26T11:07:18.005Z,1
2019-06-26T11:12:20.566Z,1
2019-06-26T11:17:23.047Z,1
2019-06-26T11:22:25.312Z,1
2019-06-26T11:27:27.793Z,1
2019-06-26T11:32:30.198Z,1
2019-06-26T11:37:32.649Z,1
2019-06-26T11:42:35.245Z,1
2019-06-26T11:47:37.674Z,1
2019-06-26T11:52:40.100Z,1
2019-06-26T11:57:42.498Z,1
2019-06-26T12:02:45.025Z,1
2019-06-26T12:07:47.440Z,1
2019-06-26T12:12:49.908Z,1
2019-06-26T12:17:52.551Z,1
2019-06-26T12:22:54.795Z,1
2019-06-26T12:27:57.312Z,1
2019-06-26T12:33:03.175Z,1
2019-06-26T12:38:02.190Z,1
2019-06-26T12:43:04.655Z,1
2019-06-26T12:48:07.558Z,1
2019-06-26T12:53:09.579Z,1
2019-06-26T12:58:14.853Z,1
2019-06-26T13:03:14.504Z,1
2019-06-26T13:08:17.205Z,1
2019-06-26T13:23:24.407Z,1
2019-06-26T13:28:26.829Z,1
2019-06-26T13:38:31.824Z,1
2019-06-26T13:43:34.219Z,1
2019-06-26T13:48:37.735Z,1
2019-06-26T13:53:39.290Z,1
2019-06-26T13:58:41.633Z,1
2019-06-26T14:03:44.138Z,1
2019-06-26T14:08:46.571Z,1
2019-06-26T14:13:49.108Z,1
2019-06-26T14:18:52.048Z,1
2019-06-26T14:23:53.944Z,1
2019-06-26T14:28:56.412Z,1
2019-06-26T14:33:59.004Z,1
2019-06-26T14:39:01.341Z,1
2019-06-26T14:44:03.871Z,1
2019-06-26T14:49:06.527Z,1
2019-06-26T14:54:08.748Z,1
2019-06-26T14:59:11.205Z,1
2019-06-26T15:04:13.649Z,1
2019-06-26T15:09:16.232Z,1
2019-06-26T15:14:18.717Z,1
2019-06-26T15:19:21.812Z,1
2019-06-26T15:24:23.586Z,1
2019-06-26T15:29:26.002Z,1
2019-06-26T15:34:28.456Z,1
2019-06-26T15:39:30.882Z,1
2019-06-26T15:44:33.393Z,1
2019-06-26T15:49:35.839Z,1
2019-06-26T15:54:38.260Z,1
2019-06-26T15:59:40.774Z,1
2019-06-26T16:04:43.167Z,1
2019-06-26T16:09:45.696Z,1
2019-06-26T16:14:48.102Z,1
2019-06-26T16:19:50.652Z,1
2019-06-26T16:24:53.054Z,1
2019-06-26T16:29:55.591Z,1
2019-06-26T16:34:57.953Z,1
2019-06-26T16:40:00.392Z,1
2019-06-26T16:45:02.917Z,1
2019-06-26T16:50:05.481Z,1
2019-06-26T16:55:07.789Z,1
2019-06-26T17:00:10.544Z,1
2019-06-26T17:05:12.757Z,1
2019-06-26T17:10:15.219Z,1
2019-06-26T17:15:17.702Z,1
2019-06-26T17:20:20.188Z,1
2019-06-26T17:25:22.548Z,1
2019-06-26T17:30:25.101Z,1
2019-06-26T17:35:27.463Z,1
2019-06-26T17:40:29.923Z,1
2019-06-26T17:45:32.439Z,1
2019-06-26T17:50:34.958Z,1
2019-06-26T17:55:37.436Z,1
2019-06-26T18:00:39.814Z,1
2019-06-26T18:05:42.359Z,1
2019-06-26T18:10:44.901Z,1
2019-06-26T18:15:47.315Z,1
2019-06-26T18:20:50.300Z,1
2019-06-26T18:25:54.382Z,1
2019-06-26T18:30:54.589Z,1
2019-06-26T18:35:56.985Z,1
2019-06-26T18:40:59.605Z,1
2019-06-26T18:46:02.010Z,1
2019-06-26T18:51:04.537Z,1
2019-06-26T18:56:06.956Z,1
2019-06-26T19:01:09.326Z,1
2019-06-26T19:06:11.760Z,1
2019-06-26T19:11:14.332Z,1
2019-06-26T19:16:16.691Z,1
2019-06-26T19:21:19.258Z,1
2019-06-26T19:26:21.649Z,1
2019-06-26T19:31:24.084Z,1
2019-06-26T19:36:28.608Z,1
2019-06-26T19:41:29.020Z,1
2019-06-26T19:46:31.463Z,1
2019-06-26T19:51:33.924Z,1
2019-06-26T19:56:36.423Z,1
2019-06-26T20:01:38.907Z,1
2019-06-26T20:06:41.258Z,1
2019-06-26T20:11:43.729Z,1
2019-06-26T20:16:46.186Z,1
2019-06-26T20:21:48.702Z,1
2019-06-26T20:26:51.181Z,1
2019-06-26T20:31:53.658Z,1
2019-06-26T20:36:56.183Z,1
2019-06-26T20:41:58.713Z,1
2019-06-26T20:47:00.965Z,1
2019-06-26T20:52:03.731Z,1
2019-06-26T20:57:05.881Z,1
2019-06-26T21:02:08.405Z,1
2019-06-26T21:07:10.822Z,1
2019-06-26T21:12:13.236Z,1
2019-06-26T21:17:15.710Z,1
2019-06-26T21:22:18.273Z,1
2019-06-26T21:27:20.627Z,1
2019-06-26T21:32:23.073Z,1
2019-06-26T21:37:25.546Z,1
2019-06-26T21:42:28.037Z,1
2019-06-26T21:47:30.478Z,1
2019-06-26T21:52:32.932Z,1
2019-06-26T21:57:35.440Z,1
2019-06-26T22:02:38.093Z,1
2019-06-26T22:07:40.355Z,1
2019-06-26T22:12:42.772Z,1
2019-06-26T22:17:45.227Z,1
2019-06-26T22:22:47.785Z,1
2019-06-26T22:27:50.200Z,1
2019-06-26T22:32:52.899Z,1
2019-06-26T22:37:55.037Z,1
2019-06-26T22:42:57.613Z,1
2019-06-26T22:47:59.951Z,1
2019-06-26T22:53:02.448Z,1
2019-06-26T22:58:04.946Z,1
2019-06-26T23:03:07.438Z,1
2019-06-26T23:08:09.797Z,1
2019-06-26T23:13:12.284Z,1
2019-06-26T23:18:14.776Z,1
2019-06-26T23:23:17.177Z,1
2019-06-26T23:28:19.642Z,1
2019-06-26T23:33:22.204Z,1
2019-06-26T23:38:24.556Z,1
2019-06-26T23:43:27.074Z,1
2019-06-26T23:48:29.581Z,1
2019-06-26T23:53:31.928Z,1
2019-06-26T23:58:34.441Z,1
